createdAt,value
2022-11-05T00:02:08.047Z,94512.00
2022-11-05T00:04:53.355Z,94516.97
2022-11-05T00:07:40.314Z,94515.28
2022-11-05T00:10:15.632Z,94511.78
2022-11-05T00:13:00.848Z,94517.78
2022-11-05T00:15:46.456Z,94520.47
2022-11-05T00:18:14.185Z,94525.88
2022-11-05T00:20:41.858Z,94528.94
2022-11-05T00:23:26.820Z,94525.78
2022-11-05T00:25:57.388Z,94522.03
2022-11-05T00:28:25.299Z,94536.16
2022-11-05T00:30:53.405Z,94537.78
2022-11-05T00:33:21.306Z,94548.94
2022-11-05T00:35:48.965Z,94549.56
2022-11-05T00:38:16.636Z,94553.91
2022-11-05T00:40:44.334Z,94553.91
2022-11-05T00:43:33.766Z,94557.91
2022-11-05T00:46:01.639Z,94560.81
2022-11-05T00:48:46.758Z,94571.41
2022-11-05T00:51:14.434Z,94567.63
2022-11-05T00:53:42.230Z,94575.50
2022-11-05T00:56:10.109Z,94578.00
2022-11-05T00:58:39.266Z,94573.19
2022-11-05T01:01:07.178Z,94577.09
2022-11-05T01:03:36.663Z,94569.56
2022-11-05T01:06:08.183Z,94573.09
2022-11-05T01:08:35.882Z,94577.22
2022-11-05T01:11:10.441Z,94580.31
2022-11-05T01:13:40.623Z,94582.78
2022-11-05T01:16:09.876Z,94585.72
2022-11-05T01:18:38.754Z,94575.72
2022-11-05T01:21:13.865Z,94572.78
2022-11-05T01:23:41.527Z,94586.94
2022-11-05T01:26:09.198Z,94577.16
2022-11-05T01:28:36.892Z,94577.31
2022-11-05T01:31:06.215Z,94579.56
2022-11-05T01:33:33.916Z,94580.97
2022-11-05T01:36:04.237Z,94587.81
2022-11-05T01:38:31.982Z,94581.38
2022-11-05T01:40:59.641Z,94585.13
2022-11-05T01:43:27.303Z,94587.59
2022-11-05T01:45:58.526Z,94576.78
2022-11-05T01:48:31.475Z,94581.16
2022-11-05T01:51:00.297Z,94584.31
2022-11-05T01:53:30.904Z,94582.19
2022-11-05T01:56:01.875Z,94594.19
2022-11-05T01:58:32.511Z,94582.09
2022-11-05T02:01:00.277Z,94593.28
2022-11-05T02:03:29.687Z,94584.94
2022-11-05T02:05:58.620Z,94586.84
2022-11-05T02:08:42.553Z,94589.97
2022-11-05T02:11:10.315Z,94584.94
2022-11-05T02:13:38.191Z,94592.81
2022-11-05T02:16:12.275Z,94597.41
2022-11-05T02:18:49.126Z,94589.53
2022-11-05T02:21:32.669Z,94586.84
2022-11-05T02:24:18.565Z,94586.59
2022-11-05T02:27:10.528Z,94587.41
2022-11-05T02:29:57.420Z,94583.91
2022-11-05T02:32:36.772Z,94590.47
2022-11-05T02:35:11.222Z,94591.53
2022-11-05T02:37:40.931Z,94596.69
2022-11-05T02:40:14.902Z,94590.03
2022-11-05T02:42:45.904Z,94590.25
2022-11-05T02:45:22.575Z,94592.16
2022-11-05T02:47:53.801Z,94585.22
2022-11-05T02:50:26.284Z,94588.50
2022-11-05T02:53:00.540Z,94598.50
2022-11-05T02:55:32.374Z,94597.22
2022-11-05T02:58:00.640Z,94595.56
2022-11-05T03:00:42.199Z,94595.56
2022-11-05T03:03:19.001Z,94605.56
2022-11-05T03:05:56.144Z,94602.88
2022-11-05T03:08:33.431Z,94598.88
2022-11-05T03:11:03.966Z,94605.94
2022-11-05T03:13:35.179Z,94606.75
2022-11-05T03:16:07.957Z,94601.34
2022-11-05T03:18:42.267Z,94618.16
2022-11-05T03:21:12.875Z,94621.72
2022-11-05T03:23:46.657Z,94616.88
2022-11-05T03:26:19.030Z,94623.97
2022-11-05T03:28:49.331Z,94636.03
2022-11-05T03:31:17.859Z,94637.47
2022-11-05T03:33:47.902Z,94638.28
2022-11-05T03:36:19.475Z,94645.59
2022-11-05T03:38:50.935Z,94646.19
2022-11-05T03:41:18.682Z,94654.06
2022-11-05T03:43:48.316Z,94652.41
2022-11-05T03:46:19.322Z,94661.34
2022-11-05T03:48:50.488Z,94666.50
2022-11-05T03:51:22.073Z,94677.13
2022-11-05T03:53:51.816Z,94676.06
2022-11-05T03:56:23.872Z,94681.47
2022-11-05T03:58:57.557Z,94678.88
2022-11-05T04:01:26.674Z,94690.03
2022-11-05T04:03:55.852Z,94686.66
2022-11-05T04:06:41.309Z,94694.56
2022-11-05T04:09:27.125Z,94693.63
2022-11-05T04:12:12.362Z,94687.97
2022-11-05T04:14:40.260Z,94691.03
2022-11-05T04:17:06.925Z,94694.81
2022-11-05T04:19:54.119Z,94696.22
2022-11-05T04:22:39.536Z,94693.91
2022-11-05T04:25:07.562Z,94693.06
2022-11-05T04:27:35.359Z,94691.22
2022-11-05T04:30:20.789Z,94696.13
2022-11-05T04:33:02.967Z,94690.50
2022-11-05T04:35:33.662Z,94690.50
2022-11-05T04:38:01.435Z,94689.22
2022-11-05T04:40:29.617Z,94699.81
2022-11-05T04:42:58.369Z,94703.94
2022-11-05T04:45:27.360Z,94702.09
2022-11-05T04:47:55.047Z,94705.16
2022-11-05T04:50:23.137Z,94710.56
2022-11-05T04:52:52.230Z,94709.72
2022-11-05T04:55:21.761Z,94714.31
2022-11-05T04:57:50.430Z,94714.06
2022-11-05T05:00:19.559Z,94713.84
2022-11-05T05:02:47.634Z,94714.91
2022-11-05T05:05:15.618Z,94715.53
2022-11-05T05:07:43.512Z,94714.44
2022-11-05T05:10:13.328Z,94720.44
2022-11-05T05:12:41.013Z,94722.78
2022-11-05T05:15:09.300Z,94725.03
2022-11-05T05:17:36.923Z,94728.81
2022-11-05T05:20:22.164Z,94725.50
2022-11-05T05:22:52.989Z,94728.44
2022-11-05T05:25:22.801Z,94737.97
2022-11-05T05:27:50.466Z,94737.16
2022-11-05T05:30:18.316Z,94737.97
2022-11-05T05:32:45.984Z,94732.34
2022-11-05T05:35:13.675Z,94732.94
2022-11-05T05:37:41.292Z,94741.28
2022-11-05T05:40:10.105Z,94737.53
2022-11-05T05:42:43.219Z,94745.50
2022-11-05T05:45:12.313Z,94737.41
2022-11-05T05:47:39.969Z,94742.34
2022-11-05T05:50:08.235Z,94747.50
2022-11-05T05:52:35.871Z,94761.03
2022-11-05T05:55:03.553Z,94756.25
2022-11-05T05:57:31.246Z,94761.44
2022-11-05T06:00:01.848Z,94762.84
2022-11-05T06:02:31.336Z,94763.44
2022-11-05T06:04:59.148Z,94762.16
2022-11-05T06:07:26.790Z,94772.75
2022-11-05T06:09:54.460Z,94770.63
2022-11-05T06:12:22.135Z,94773.34
2022-11-05T06:14:49.794Z,94771.47
2022-11-05T06:17:18.853Z,94780.28
2022-11-05T06:19:46.485Z,94778.19
2022-11-05T06:22:14.137Z,94774.03
2022-11-05T06:24:41.845Z,94781.34
2022-11-05T06:27:09.655Z,94784.03
2022-11-05T06:29:37.315Z,94791.13
2022-11-05T06:32:05.188Z,94790.63
2022-11-05T06:34:34.249Z,94797.13
2022-11-05T06:37:01.958Z,94794.78
2022-11-05T06:39:29.636Z,94799.38
2022-11-05T06:42:17.127Z,94809.97
2022-11-05T06:44:45.071Z,94808.91
2022-11-05T06:47:12.888Z,94813.06
2022-11-05T06:49:41.947Z,94814.22
2022-11-05T06:52:09.775Z,94813.78
2022-11-05T06:54:37.460Z,94815.22
2022-11-05T06:57:06.195Z,94821.44
2022-11-05T06:59:34.401Z,94826.41
2022-11-05T07:02:02.237Z,94825.97
2022-11-05T07:04:29.943Z,94835.50
2022-11-05T07:06:59.891Z,94838.78
2022-11-05T07:09:27.677Z,94840.22
2022-11-05T07:11:55.764Z,94854.34
2022-11-05T07:14:23.644Z,94846.81
2022-11-05T07:16:51.356Z,94853.91
2022-11-05T07:19:19.112Z,94859.09
2022-11-05T07:21:48.689Z,94856.84
2022-11-05T07:24:17.855Z,94859.78
2022-11-05T07:26:45.516Z,94864.16
2022-11-05T07:29:13.147Z,94871.06
2022-11-05T07:31:40.846Z,94880.72
2022-11-05T07:34:08.540Z,94881.97
2022-11-05T07:36:39.404Z,94882.22
2022-11-05T07:39:07.275Z,94894.13
2022-11-05T07:41:36.371Z,94896.59
2022-11-05T07:44:04.504Z,94901.16
2022-11-05T07:46:32.241Z,94898.84
2022-11-05T07:48:59.940Z,94901.56
2022-11-05T07:51:27.585Z,94904.88
2022-11-05T07:53:55.251Z,94898.16
2022-11-05T07:56:23.220Z,94897.25
2022-11-05T07:58:52.264Z,94900.09
2022-11-05T08:01:20.020Z,94905.97
2022-11-05T08:03:48.031Z,94915.53
2022-11-05T08:06:15.850Z,94915.06
2022-11-05T08:08:43.625Z,94922.97
2022-11-05T08:11:12.570Z,94927.78
2022-11-05T08:13:40.408Z,94916.34
2022-11-05T08:16:10.822Z,94922.00
2022-11-05T08:18:39.633Z,94926.22
2022-11-05T08:21:08.893Z,94927.63
2022-11-05T08:23:36.801Z,94920.94
2022-11-05T08:26:05.173Z,94919.06
2022-11-05T08:28:33.008Z,94928.09
2022-11-05T08:31:00.804Z,94932.69
2022-11-05T08:33:31.367Z,94930.34
2022-11-05T08:36:03.308Z,94919.88
2022-11-05T08:38:31.115Z,94927.31
2022-11-05T08:40:59.610Z,94920.50
2022-11-05T08:43:27.341Z,94913.88
2022-11-05T08:45:55.355Z,94923.50
2022-11-05T08:48:23.205Z,94924.94
2022-11-05T08:50:52.306Z,94928.09
2022-11-05T08:53:21.366Z,94924.47
2022-11-05T08:55:51.037Z,94917.38
2022-11-05T08:58:20.857Z,94919.41
2022-11-05T09:00:49.783Z,94920.50
2022-11-05T09:03:17.966Z,94934.41
2022-11-05T09:05:45.955Z,94922.50
2022-11-05T09:08:16.637Z,94933.47
2022-11-05T09:10:44.956Z,94926.56
2022-11-05T09:13:18.274Z,94929.41
2022-11-05T09:15:47.022Z,94935.19
2022-11-05T09:18:15.485Z,94935.19
2022-11-05T09:20:43.534Z,94936.47
2022-11-05T09:23:12.513Z,94938.97
2022-11-05T09:25:41.934Z,94943.53
2022-11-05T09:28:15.925Z,94945.66
2022-11-05T09:30:45.139Z,94942.63
2022-11-05T09:33:13.283Z,94945.94
2022-11-05T09:35:41.785Z,94949.63
2022-11-05T09:38:09.593Z,94946.19
2022-11-05T09:40:38.907Z,94944.56
2022-11-05T09:43:08.390Z,94946.06
2022-11-05T09:45:37.159Z,94942.91
2022-11-05T09:48:09.007Z,94945.47
2022-11-05T09:50:40.195Z,94959.63
2022-11-05T09:53:08.160Z,94953.28
2022-11-05T09:55:39.044Z,94963.22
2022-11-05T12:37:50.660Z,95046.84
2022-11-05T12:40:38.230Z,95063.00
2022-11-05T12:43:13.508Z,95054.63
2022-11-05T12:45:47.061Z,95062.31
2022-11-05T12:48:37.049Z,95056.03
2022-11-05T12:51:14.031Z,95045.16
2022-11-05T12:53:54.535Z,95053.56
2022-11-05T12:56:34.268Z,95053.09
2022-11-05T12:59:04.677Z,95049.09
2022-11-05T13:01:36.678Z,95050.97
2022-11-05T13:04:08.886Z,95048.38
2022-11-05T13:06:37.342Z,95056.66
2022-11-05T13:09:09.388Z,95058.19
2022-11-05T13:11:41.955Z,95061.28
2022-11-05T13:14:12.989Z,95059.75
2022-11-05T13:16:44.628Z,95066.34
2022-11-05T13:19:17.991Z,95061.38
2022-11-05T13:21:49.605Z,95060.94
2022-11-05T13:24:22.062Z,95062.47
2022-11-05T13:26:54.038Z,95065.19
2022-11-05T13:29:26.720Z,95058.44
2022-11-05T13:31:57.931Z,95059.75
2022-11-05T13:34:25.665Z,95063.97
2022-11-05T13:37:13.994Z,95071.09
2022-11-05T13:39:48.330Z,95070.38
2022-11-05T13:42:42.882Z,95065.53
2022-11-05T13:45:39.639Z,95071.78
2022-11-05T13:48:33.300Z,95070.38
2022-11-05T13:51:34.801Z,95065.97
2022-11-05T13:54:37.198Z,95071.16
2022-11-05T13:57:23.360Z,95077.31
2022-11-05T14:00:03.360Z,95066.00
2022-11-05T14:02:38.660Z,95077.44
2022-11-05T14:05:07.449Z,95075.56
2022-11-05T14:07:37.423Z,95082.41
2022-11-05T14:10:11.100Z,95086.91
2022-11-05T14:12:40.911Z,95085.91
2022-11-05T14:15:18.202Z,95090.41
2022-11-05T14:17:58.692Z,95090.75
2022-11-05T14:20:45.878Z,95091.81
2022-11-05T14:23:38.615Z,95089.72
2022-11-05T14:26:14.956Z,95092.44
2022-11-05T14:28:46.746Z,95095.84
2022-11-05T14:31:47.480Z,95096.41
2022-11-05T14:34:23.974Z,95095.47
2022-11-05T14:37:19.120Z,95097.84
2022-11-05T14:39:47.938Z,95091.91
2022-11-05T14:42:18.466Z,95100.16
2022-11-05T14:45:06.772Z,95098.75
2022-11-05T14:47:36.820Z,95099.34
2022-11-05T14:50:11.606Z,95105.34
2022-11-05T14:52:40.185Z,95105.34
2022-11-05T14:55:10.760Z,95102.28
2022-11-05T14:58:18.164Z,95112.56
2022-11-05T15:00:49.656Z,95111.50
2022-11-05T15:04:02.131Z,95119.25
2022-11-05T15:06:34.842Z,95126.56
2022-11-05T15:09:13.556Z,95128.09
2022-11-05T15:11:44.888Z,95122.31
2022-11-05T15:14:21.888Z,95122.69
2022-11-05T15:16:53.943Z,95128.56
2022-11-05T15:19:25.929Z,95127.56
2022-11-05T15:21:55.399Z,95129.94
2022-11-05T15:24:23.394Z,95129.94
2022-11-05T15:26:59.234Z,95127.84
2022-11-05T15:29:30.414Z,95127.84
2022-11-05T15:32:00.035Z,95130.06
2022-11-05T15:34:30.910Z,95137.97
2022-11-05T15:37:01.196Z,95137.38
2022-11-05T15:39:32.254Z,95143.63
2022-11-05T15:42:02.317Z,95140.69
2022-11-05T15:44:32.016Z,95135.72
2022-11-05T15:47:08.926Z,95139.50
2022-11-05T15:49:36.918Z,95141.63
2022-11-05T15:52:05.211Z,95143.50
2022-11-05T15:54:33.467Z,95136.41
2022-11-05T15:57:01.723Z,95140.59
2022-11-05T15:59:30.931Z,95145.44
2022-11-05T16:02:15.982Z,95138.34
2022-11-05T16:04:48.191Z,95151.91
2022-11-05T16:07:15.804Z,95146.50
2022-11-05T16:09:50.945Z,95153.81
2022-11-05T16:12:29.243Z,95167.31
2022-11-05T16:14:58.290Z,95159.31
2022-11-05T16:17:27.884Z,95173.63
2022-11-05T16:19:59.032Z,95167.00
2022-11-05T16:22:28.338Z,95173.19
2022-11-05T16:24:57.406Z,95177.78
2022-11-05T16:27:26.452Z,95181.63
2022-11-05T16:29:56.659Z,95184.09
2022-11-05T16:32:30.659Z,95183.13
2022-11-05T16:35:03.002Z,95179.78
2022-11-05T16:37:37.323Z,95188.56
2022-11-05T16:40:15.264Z,95190.19
2022-11-05T16:42:44.408Z,95194.31
2022-11-05T16:45:14.925Z,95188.13
2022-11-05T16:47:44.040Z,95199.44
2022-11-05T16:50:20.529Z,95187.53
2022-11-05T16:52:48.596Z,95204.63
2022-11-05T16:55:17.797Z,95207.09
2022-11-05T16:57:47.083Z,95214.84
2022-11-05T17:00:17.710Z,95216.13
2022-11-05T17:02:46.051Z,95222.22
2022-11-05T17:05:21.134Z,95214.31
2022-11-05T17:07:49.068Z,95221.81
2022-11-05T17:10:17.296Z,95229.75
2022-11-05T17:12:45.413Z,95231.84
2022-11-05T17:15:21.550Z,95236.19
2022-11-05T17:17:49.741Z,95237.25
2022-11-05T17:20:36.536Z,95233.50
2022-11-05T17:23:07.483Z,95239.72
2022-11-05T17:25:35.295Z,95246.59
2022-11-05T17:28:03.523Z,95242.22
2022-11-05T17:30:31.631Z,95243.28
2022-11-05T17:32:59.819Z,95246.00
2022-11-05T17:35:29.116Z,95247.69
2022-11-05T17:37:56.932Z,95244.75
2022-11-05T17:40:25.213Z,95251.84
2022-11-05T17:42:53.529Z,95247.47
2022-11-05T17:45:21.359Z,95242.91
2022-11-05T17:47:49.217Z,95248.09
2022-11-05T17:50:19.064Z,95246.44
2022-11-05T17:52:48.388Z,95257.06
2022-11-05T17:55:19.093Z,95253.97
2022-11-05T17:57:48.658Z,95250.00
2022-11-05T18:00:18.457Z,95253.56
2022-11-05T18:02:48.445Z,95256.50
2022-11-05T18:05:16.828Z,95260.91
2022-11-05T18:07:44.853Z,95263.59
2022-11-05T18:10:14.510Z,95269.03
2022-11-05T18:12:43.043Z,95266.53
2022-11-05T18:15:11.456Z,95269.47
2022-11-05T18:17:39.314Z,95268.63
2022-11-05T18:20:12.969Z,95273.00
2022-11-05T18:22:45.705Z,95267.59
2022-11-05T18:25:14.894Z,95271.94
2022-11-05T18:27:43.207Z,95278.25
2022-11-05T18:30:14.161Z,95273.66
2022-11-05T18:32:42.057Z,95274.09
2022-11-05T18:35:10.601Z,95277.41
2022-11-05T18:37:39.024Z,95270.13
2022-11-05T18:40:08.574Z,95277.81
2022-11-05T18:42:37.845Z,95273.44
2022-11-05T18:45:06.868Z,95278.66
2022-11-05T18:47:34.951Z,95281.16
2022-11-05T18:50:03.310Z,95277.38
2022-11-05T18:52:31.939Z,95273.84
2022-11-05T18:54:59.876Z,95270.53
2022-11-05T18:57:27.915Z,95264.91
2022-11-05T18:59:56.987Z,95274.22
2022-11-05T19:02:24.765Z,95277.53
2022-11-05T19:05:14.414Z,95279.66
2022-11-05T19:07:40.506Z,95274.06
2022-11-05T19:10:09.471Z,95264.91
2022-11-05T19:12:37.112Z,95273.63
2022-11-05T19:15:08.018Z,95276.94
2022-11-05T19:17:36.479Z,95274.84
2022-11-05T19:20:05.311Z,95273.78
2022-11-05T19:22:33.046Z,95274.63
2022-11-05T19:25:00.787Z,95280.88
2022-11-05T19:27:28.570Z,95282.53
2022-11-05T19:29:56.256Z,95272.53
2022-11-05T19:32:25.263Z,95284.63
2022-11-05T19:34:53.013Z,95298.22
2022-11-05T19:37:20.617Z,95301.13
2022-11-05T19:39:48.250Z,95293.84
2022-11-05T19:42:15.920Z,95295.50
2022-11-05T19:44:44.160Z,95299.03
2022-11-05T19:47:11.805Z,95296.97
2022-11-05T19:49:40.837Z,95299.69
2022-11-05T19:52:08.499Z,95296.72
2022-11-05T19:54:36.503Z,95291.97
2022-11-05T19:57:04.261Z,95294.50
2022-11-05T19:59:31.977Z,95293.88
2022-11-05T20:01:59.942Z,95296.59
2022-11-05T20:04:27.833Z,95293.66
2022-11-05T20:06:56.931Z,95288.69
2022-11-05T20:09:24.884Z,95294.09
2022-11-05T20:11:54.313Z,95295.38
2022-11-05T20:14:22.264Z,95294.56
2022-11-05T20:16:50.412Z,95284.81
2022-11-05T20:19:20.168Z,95292.56
2022-11-05T20:21:47.866Z,95296.31
2022-11-05T20:24:24.110Z,95289.84
2022-11-05T20:26:52.741Z,95293.81
2022-11-05T20:29:20.414Z,95300.72
2022-11-05T20:31:48.484Z,95295.53
2022-11-05T20:34:16.338Z,95304.25
2022-11-05T20:36:43.995Z,95297.38
2022-11-05T20:39:12.037Z,95297.97
2022-11-05T20:41:41.168Z,95302.97
2022-11-05T20:44:08.933Z,95305.91
2022-11-05T20:46:36.633Z,95304.66
2022-11-05T20:49:04.446Z,95308.22
2022-11-05T20:51:32.135Z,95299.41
2022-11-05T20:54:02.208Z,95311.31
2022-11-05T20:56:31.735Z,95308.81
2022-11-05T20:59:01.115Z,95306.72
2022-11-05T21:01:30.629Z,95310.06
2022-11-05T21:03:59.608Z,95316.53
2022-11-05T21:06:27.469Z,95316.97
2022-11-05T21:08:55.377Z,95316.56
2022-11-05T21:11:23.157Z,95320.31
2022-11-05T21:13:51.045Z,95316.34
2022-11-05T21:16:20.653Z,95314.69
2022-11-05T21:18:48.746Z,95312.63
2022-11-05T21:21:19.616Z,95315.53
2022-11-05T21:23:47.594Z,95320.56
2022-11-05T21:26:16.805Z,95302.69
2022-11-05T21:28:44.670Z,95312.44
2022-11-05T21:31:12.574Z,95310.16
2022-11-05T21:33:41.769Z,95306.22
2022-11-05T21:36:11.888Z,95311.25
2022-11-05T21:38:40.482Z,95310.19
2022-11-05T21:41:08.846Z,95318.31
2022-11-05T21:43:36.815Z,95319.19
2022-11-05T21:46:05.621Z,95315.88
2022-11-05T21:48:33.985Z,95311.13
2022-11-05T21:51:20.621Z,95308.00
2022-11-05T21:54:05.991Z,95310.28
2022-11-05T21:56:51.502Z,95309.09
2022-11-05T21:59:38.715Z,95309.94
2022-11-05T22:02:07.562Z,95311.63
2022-11-05T22:04:36.550Z,95305.81
2022-11-05T22:07:06.990Z,95311.63
2022-11-05T22:09:34.941Z,95311.63
2022-11-05T22:12:02.937Z,95312.88
2022-11-05T22:14:31.130Z,95311.44
2022-11-05T22:16:59.493Z,95314.34
2022-11-05T22:19:27.406Z,95319.97
2022-11-05T22:21:55.104Z,95318.66
2022-11-05T22:24:24.891Z,95319.09
2022-11-05T22:26:52.652Z,95320.75
2022-11-05T22:29:20.629Z,95320.75
2022-11-05T22:31:48.321Z,95322.44
2022-11-05T22:34:16.533Z,95319.53
2022-11-05T22:36:44.212Z,95312.84
2022-11-05T22:39:12.987Z,95309.94
2022-11-05T22:41:42.170Z,95310.78
2022-11-05T22:44:10.665Z,95299.97
2022-11-05T22:46:39.479Z,95314.72
2022-11-05T22:49:07.503Z,95309.75
2022-11-05T22:51:36.544Z,95301.63
2022-11-05T22:54:05.070Z,95300.41
2022-11-05T22:56:34.311Z,95310.34
2022-11-05T22:59:04.185Z,95299.97
2022-11-05T23:01:32.122Z,95302.88
2022-11-05T23:04:00.342Z,95299.13
2022-11-05T23:06:47.166Z,95303.28
2022-11-05T23:09:34.960Z,95295.41
2022-11-05T23:12:04.142Z,95294.53
2022-11-05T23:14:33.190Z,95294.97
2022-11-05T23:17:18.478Z,95290.81
2022-11-05T23:20:03.794Z,95296.19
2022-11-05T23:22:50.178Z,95286.44
2022-11-05T23:25:20.232Z,95286.44
2022-11-05T23:27:49.512Z,95277.47
2022-11-05T23:30:20.263Z,95279.13
2022-11-05T23:32:47.152Z,95283.25
2022-11-05T23:35:15.470Z,95282.00
2022-11-05T23:38:00.568Z,95284.47
2022-11-05T23:40:29.843Z,95289.81
2022-11-05T23:43:15.751Z,95292.69
2022-11-05T23:46:03.099Z,95289.56
2022-11-05T23:48:33.274Z,95289.09
2022-11-05T23:51:02.376Z,95287.78
2022-11-05T23:53:31.322Z,95288.84
2022-11-05T23:56:01.328Z,95290.66
2022-11-05T23:58:29.288Z,95293.72
